首页
METAR-TAF:

METAR-TAF

机场 :

Teterboro, 新泽西州, 美国

纬度: 40-51-32N, 经度: 074-03-24W, 海拔: 2米

当前天气观测

该预报发布于38分钟前的15:51 UTC
静风
温度 4°C
湿度 75%
气压 1028 hPa
能見度: 12.9公里
阴天层高于1300英尺

METAR: KTEB 131551Z 00000KT 8SM OVC013 04/00 A3037 RMK AO2 SLP283 T00390000

时间: 11:29 (16:29 UTC)

预报

该预报发布于1小时和5分钟前的15:24 UTC
预报有效从13日的 15点(UTC)到 14日的 18点(UTC)
风速5节,风向东北
能見度: 10公里
散云层高于1500英尺
多云层高于2500英尺
附近有阵雨
短暂存在
从 13日的 18点(UTC)到 13日的 21点(UTC)
能見度: 8.0公里
多云层高于1500英尺
小雨, 轻雾
从 13日的 2100点(UTC)
风速5节,风向东转东北
能見度: 4.8公里
散云层高于600英尺
阴天层高于1000英尺
小雨, 轻雾
从 14日的 0000点(UTC)
风速7节,风向
能見度: 3.2公里
散云层高于300英尺
阴天层高于600英尺
雨, 轻雾
从 14日的 0300点(UTC)
风速7节,风向东转东北
能見度: 1.6公里
阴天层高于300英尺
雨, 轻雾
从 14日的 1600点(UTC)
风速5节,风向多变
能見度: 4.8公里
散云层高于400英尺
多云层高于700英尺
小阵雨

TAF: KTEB 131524Z 1315/1418 05005KT P6SM VCSH SCT015 BKN025 TEMPO 1318/1321 5SM -RA BR BKN015 FM132100 06005KT 3SM -RA BR SCT006 OVC010 FM140000 08007KT 2SM RA BR SCT003 OVC006 FM140300 06007KT 1SM RA BR OVC003 FM141600 VRB05KT 3SM -SHRA SCT004 BKN007

超过4000个机场的气象观测和天气预报(METAR&TAF报告)。

可查询的气象台以黄色和红色小点在地图上表示。

将鼠标移到小点上方,可查看气象台名称。

然后点击查看天气观测和预报。

如需切换地图:点击带黑十字的绿色按钮放大地图;点击带横线的绿色按钮缩小地图;或者点击绿色箭头查看邻近地区的地图。


METAR-TAF: